createdAt,value
2019-05-10T00:01:41.110Z,8.70
2019-05-10T00:04:28.103Z,8.60
2019-05-10T00:07:14.999Z,8.60
2019-05-10T00:09:43.076Z,8.60
2019-05-10T00:12:18.983Z,8.50
2019-05-10T00:14:49.247Z,8.60
2019-05-10T00:17:19.239Z,8.50
2019-05-10T00:19:47.932Z,8.60
2019-05-10T00:22:16.639Z,8.50
2019-05-10T00:25:00.750Z,8.50
2019-05-10T00:27:17.045Z,8.50
2019-05-10T00:29:45.715Z,8.50
2019-05-10T00:32:14.490Z,8.50
2019-05-10T00:34:43.063Z,8.50
2019-05-10T00:37:11.717Z,8.50
2019-05-10T00:39:40.343Z,8.50
2019-05-10T00:42:08.977Z,8.50
2019-05-10T00:44:37.597Z,8.50
2019-05-10T00:47:06.246Z,8.50
2019-05-10T00:49:34.846Z,8.50
2019-05-10T00:52:03.634Z,8.40
2019-05-10T00:54:32.323Z,8.50
2019-05-10T00:57:01.023Z,8.40
2019-05-10T00:59:29.717Z,8.40
2019-05-10T01:01:58.435Z,8.40
2019-05-10T01:04:27.046Z,8.40
2019-05-10T01:06:56.520Z,8.40
2019-05-10T01:09:25.336Z,8.40
2019-05-10T01:11:54.060Z,8.40
2019-05-10T01:14:22.671Z,8.40
2019-05-10T01:16:51.308Z,8.40
2019-05-10T01:19:19.915Z,8.40
2019-05-10T01:21:52.087Z,8.30
2019-05-10T01:24:20.773Z,8.30
2019-05-10T01:26:49.430Z,8.30
2019-05-10T01:29:18.051Z,8.30
2019-05-10T01:31:46.720Z,8.30
2019-05-10T01:34:15.322Z,8.30
2019-05-10T01:36:43.979Z,8.30
2019-05-10T01:39:12.573Z,8.30
2019-05-10T01:41:41.202Z,8.30
2019-05-10T01:44:09.814Z,8.30
2019-05-10T01:46:38.446Z,8.20
2019-05-10T01:49:07.047Z,8.20
2019-05-10T01:51:35.686Z,8.20
2019-05-10T01:54:04.382Z,8.30
2019-05-10T01:56:33.033Z,8.20
2019-05-10T01:59:01.649Z,8.20
2019-05-10T02:01:30.270Z,8.20
2019-05-10T02:03:58.901Z,8.30
2019-05-10T02:06:27.601Z,8.20
2019-05-10T02:08:56.381Z,8.20
2019-05-10T02:11:24.986Z,8.20
2019-05-10T02:13:53.612Z,8.20
2019-05-10T02:16:22.202Z,8.10
2019-05-10T02:18:50.853Z,8.20
2019-05-10T02:21:19.467Z,8.20
2019-05-10T02:23:49.177Z,8.20
2019-05-10T02:26:17.781Z,8.20
2019-05-10T02:28:46.447Z,8.20
2019-05-10T02:31:15.073Z,8.20
2019-05-10T02:33:43.687Z,8.20
2019-05-10T02:36:12.290Z,8.20
2019-05-10T02:38:40.928Z,8.20
2019-05-10T02:41:09.546Z,8.20
2019-05-10T02:43:38.186Z,8.20
2019-05-10T02:46:06.794Z,8.10
2019-05-10T02:48:35.431Z,8.10
2019-05-10T02:51:04.058Z,8.10
2019-05-10T02:53:32.779Z,8.10
2019-05-10T02:56:02.473Z,8.10
2019-05-10T02:58:32.593Z,8.10
2019-05-10T03:01:01.262Z,8.10
2019-05-10T03:03:31.758Z,8.10
2019-05-10T03:06:01.914Z,8.00
2019-05-10T03:08:34.982Z,8.00
2019-05-10T03:11:03.603Z,8.00
2019-05-10T03:13:32.428Z,8.00
2019-05-10T03:16:04.030Z,7.90
2019-05-10T03:18:32.898Z,7.80
2019-05-10T03:21:01.831Z,7.90
2019-05-10T03:23:30.567Z,7.90
2019-05-10T03:25:59.243Z,7.90
2019-05-10T03:28:27.955Z,7.90
2019-05-10T03:30:56.646Z,7.80
2019-05-10T03:33:25.384Z,7.90
2019-05-10T03:35:54.047Z,7.80
2019-05-10T03:38:22.771Z,7.80
2019-05-10T03:40:51.736Z,7.90
2019-05-10T03:43:20.458Z,7.90
2019-05-10T03:45:49.074Z,7.90
2019-05-10T03:48:17.782Z,7.90
2019-05-10T03:50:46.490Z,7.80
2019-05-10T03:53:15.099Z,7.80
2019-05-10T03:55:43.733Z,7.80
2019-05-10T03:58:12.355Z,7.70
2019-05-10T04:00:40.987Z,7.70
2019-05-10T04:03:09.767Z,7.70
2019-05-10T04:05:38.403Z,7.60
2019-05-10T04:08:07.097Z,7.60
2019-05-10T04:10:35.750Z,7.50
2019-05-10T04:13:04.741Z,7.50
2019-05-10T04:15:33.395Z,7.40
2019-05-10T04:18:02.016Z,7.40
2019-05-10T04:20:30.691Z,7.40
2019-05-10T04:22:59.280Z,7.40
2019-05-10T04:25:27.971Z,7.40
2019-05-10T04:27:56.602Z,7.40
2019-05-10T04:30:25.331Z,7.40
2019-05-10T04:32:53.939Z,7.50
2019-05-10T04:35:22.599Z,7.50
2019-05-10T04:37:51.211Z,7.60
2019-05-10T04:40:28.143Z,7.60
2019-05-10T04:42:56.781Z,7.70
2019-05-10T04:45:25.414Z,7.70
2019-05-10T04:47:54.038Z,7.80
2019-05-10T04:50:22.687Z,7.80
2019-05-10T04:52:51.320Z,7.80
2019-05-10T04:55:19.953Z,7.80
2019-05-10T04:57:51.075Z,7.90
2019-05-10T05:00:18.883Z,7.90
2019-05-10T05:02:47.601Z,7.90
2019-05-10T05:05:16.286Z,7.90
2019-05-10T05:07:44.873Z,8.00
2019-05-10T05:10:13.578Z,8.00
2019-05-10T05:12:42.235Z,8.10
2019-05-10T05:15:11.518Z,8.10
2019-05-10T05:17:40.186Z,8.10
2019-05-10T05:20:08.869Z,8.20
2019-05-10T05:22:37.510Z,8.20
2019-05-10T05:25:06.912Z,8.20
2019-05-10T05:27:35.531Z,8.20
2019-05-10T05:30:07.778Z,8.20
2019-05-10T05:32:38.680Z,8.30
2019-05-10T05:35:06.726Z,8.30
2019-05-10T05:37:35.369Z,8.40
2019-05-10T05:40:05.830Z,8.50
2019-05-10T05:42:34.481Z,8.50
2019-05-10T05:45:04.378Z,8.70
2019-05-10T05:47:37.704Z,8.80
2019-05-10T05:50:05.021Z,9.00
2019-05-10T05:52:33.834Z,9.10
2019-05-10T05:55:02.470Z,9.10
2019-05-10T05:57:31.129Z,9.30
2019-05-10T06:00:04.252Z,9.30
2019-05-10T06:02:30.187Z,9.30
2019-05-10T06:04:58.816Z,9.20
2019-05-10T06:07:31.259Z,9.10
2019-05-10T06:09:57.702Z,9.20
2019-05-10T06:12:26.338Z,9.30
2019-05-10T06:14:54.950Z,9.40
2019-05-10T06:17:28.829Z,9.40
2019-05-10T06:19:53.830Z,9.50
2019-05-10T06:22:22.465Z,9.60
2019-05-10T06:24:52.365Z,9.60
2019-05-10T06:27:21.334Z,9.80
2019-05-10T06:29:49.947Z,9.80
2019-05-10T06:32:18.682Z,9.90
2019-05-10T06:34:47.311Z,9.90
2019-05-10T06:37:15.938Z,9.90
2019-05-10T06:39:44.581Z,9.90
2019-05-10T06:42:13.210Z,10.00
2019-05-10T06:44:42.103Z,10.10
2019-05-10T06:47:11.401Z,10.20
2019-05-10T06:49:41.729Z,10.20
2019-05-10T06:52:10.288Z,10.30
2019-05-10T06:54:38.910Z,10.40
2019-05-10T06:57:11.234Z,10.50
2019-05-10T06:59:38.865Z,10.50
2019-05-10T07:02:07.509Z,10.40
2019-05-10T07:04:40.730Z,10.40
2019-05-10T07:07:10.260Z,10.40
2019-05-10T07:10:01.671Z,10.30
2019-05-10T07:12:09.298Z,10.40
2019-05-10T07:14:45.080Z,10.40
2019-05-10T07:17:08.427Z,10.40
2019-05-10T07:19:42.055Z,10.50
2019-05-10T07:22:07.458Z,10.50
2019-05-10T07:24:36.067Z,10.60
2019-05-10T07:27:05.842Z,10.70
2019-05-10T07:29:42.064Z,10.80
2019-05-10T07:32:05.170Z,10.80
2019-05-10T07:34:33.814Z,10.90
2019-05-10T07:37:02.539Z,10.90
2019-05-10T07:39:31.190Z,10.90
2019-05-10T07:42:00.406Z,11.00
2019-05-10T07:44:30.047Z,11.00
2019-05-10T07:46:58.738Z,11.00
2019-05-10T07:49:30.407Z,11.00
2019-05-10T07:52:02.114Z,10.90
2019-05-10T07:54:27.926Z,11.10
2019-05-10T07:56:56.538Z,11.30
2019-05-10T07:59:29.083Z,11.40
2019-05-10T08:01:55.431Z,11.40
2019-05-10T08:04:31.436Z,11.50
2019-05-10T08:06:54.371Z,11.40
2019-05-10T08:09:23.077Z,11.50
2019-05-10T08:12:00.631Z,11.50
2019-05-10T08:14:29.003Z,11.50
2019-05-10T08:17:01.756Z,11.70
2019-05-10T08:19:32.773Z,11.90
2019-05-10T08:22:01.791Z,12.10
2019-05-10T08:24:28.440Z,12.30
2019-05-10T08:27:06.894Z,12.50
2019-05-10T08:29:27.378Z,12.80
2019-05-10T08:31:56.210Z,13.10
2019-05-10T08:34:28.965Z,13.40
2019-05-10T08:36:55.051Z,13.50
2019-05-10T08:39:23.698Z,13.80
2019-05-10T08:42:01.258Z,13.90
2019-05-10T08:44:24.034Z,13.80
2019-05-10T08:46:52.695Z,13.50
2019-05-10T08:49:25.661Z,13.30
2019-05-10T08:51:52.209Z,13.30
2019-05-10T08:54:22.138Z,13.20
2019-05-10T08:59:38.151Z,13.70
2019-05-10T09:02:06.795Z,14.10
2019-05-10T09:04:42.775Z,14.30
2019-05-10T09:07:05.699Z,14.50
2019-05-10T09:09:45.722Z,14.60
2019-05-10T09:12:09.071Z,14.60
2019-05-10T09:14:34.887Z,14.40
2019-05-10T09:17:04.457Z,14.30
2019-05-10T09:19:40.689Z,14.30
2019-05-10T09:22:03.675Z,14.20
2019-05-10T09:24:43.237Z,14.00
2019-05-10T09:27:07.228Z,13.90
2019-05-10T09:29:37.525Z,13.60
2019-05-10T09:32:06.826Z,13.20
2019-05-10T09:34:35.614Z,12.90
2019-05-10T09:37:08.013Z,12.70
2019-05-10T09:39:34.498Z,12.60
2019-05-10T09:42:08.342Z,12.60
2019-05-10T09:44:33.469Z,12.60
2019-05-10T09:47:04.060Z,12.50
2019-05-10T09:49:33.235Z,12.60
2019-05-10T09:52:04.593Z,12.60
2019-05-10T09:54:33.726Z,12.60
2019-05-10T09:57:03.558Z,12.80
2019-05-10T09:59:32.235Z,13.10
2019-05-10T10:02:05.098Z,13.30
2019-05-10T10:04:31.126Z,13.40
2019-05-10T10:06:59.791Z,13.50
2019-05-10T10:09:33.908Z,13.60
2019-05-10T10:12:02.862Z,13.60
2019-05-10T10:14:38.158Z,13.50
2019-05-10T10:17:02.922Z,13.40
2019-05-10T10:19:29.472Z,13.40
2019-05-10T10:21:58.158Z,13.80
2019-05-10T10:24:28.465Z,14.40
2019-05-10T10:26:58.110Z,14.90
2019-05-10T10:29:28.696Z,15.00
2019-05-10T10:31:59.006Z,15.30
2019-05-10T10:34:27.413Z,15.40
2019-05-10T10:36:58.078Z,15.80
2019-05-10T10:39:27.748Z,15.80
2019-05-10T10:41:57.144Z,15.40
2019-05-10T10:44:27.043Z,15.20
2019-05-10T10:46:58.047Z,15.20
2019-05-10T10:49:30.230Z,15.10
2019-05-10T10:51:57.369Z,15.10
2019-05-10T10:54:28.638Z,15.20
2019-05-10T10:56:59.365Z,15.20
2019-05-10T10:59:26.654Z,15.20
2019-05-10T11:02:25.354Z,15.00
2019-05-10T11:04:25.531Z,14.90
2019-05-10T11:07:09.283Z,14.90
2019-05-10T11:09:24.405Z,14.90
2019-05-10T11:11:53.069Z,15.10
2019-05-10T11:14:21.774Z,15.60
2019-05-10T11:16:52.921Z,16.00
2019-05-10T11:19:20.661Z,16.00
2019-05-10T11:21:51.233Z,15.80
2019-05-10T11:24:20.764Z,15.80
2019-05-10T11:26:51.704Z,15.60
2019-05-10T11:29:27.637Z,15.60
2019-05-10T11:32:11.144Z,15.40
2019-05-10T11:34:21.625Z,15.30
2019-05-10T11:36:51.223Z,15.20
2019-05-10T11:39:26.187Z,15.00
2019-05-10T11:41:52.933Z,14.80
2019-05-10T11:44:22.099Z,14.70
2019-05-10T11:46:50.933Z,14.60
2019-05-10T11:49:20.598Z,14.50
2019-05-10T11:51:55.011Z,14.70
2019-05-10T11:54:21.540Z,15.00
2019-05-10T11:56:52.091Z,15.40
2019-05-10T11:59:21.799Z,15.80
2019-05-10T12:01:58.095Z,16.20
2019-05-10T12:04:30.364Z,16.80
2019-05-10T12:06:51.821Z,17.40
2019-05-10T12:09:24.189Z,17.90
2019-05-10T12:11:53.063Z,18.10
2019-05-10T12:14:21.883Z,18.20
2019-05-10T12:16:54.629Z,18.30
2019-05-10T12:19:21.542Z,18.30
2019-05-10T12:21:55.486Z,18.60
2019-05-10T12:24:38.768Z,18.80
2019-05-10T12:27:12.919Z,18.90
2019-05-10T12:29:21.384Z,18.90
2019-05-10T12:31:54.402Z,18.70
2019-05-10T12:34:20.829Z,18.40
2019-05-10T12:36:51.780Z,18.10
2019-05-10T12:39:21.416Z,18.00
2019-05-10T12:41:52.981Z,18.10
2019-05-10T12:44:20.316Z,18.10
2019-05-10T12:46:53.781Z,18.10
2019-05-10T12:49:21.326Z,18.20
2019-05-10T12:51:51.332Z,18.00
2019-05-10T12:54:23.693Z,17.80
2019-05-10T12:56:49.891Z,17.90
2019-05-10T12:59:18.518Z,17.80
2019-05-10T13:01:47.161Z,18.00
2019-05-10T13:04:16.990Z,18.30
2019-05-10T13:06:45.766Z,18.70
2019-05-10T13:09:14.479Z,18.90
2019-05-10T13:11:43.038Z,18.90
2019-05-10T13:14:11.683Z,18.70
2019-05-10T13:16:40.291Z,18.70
2019-05-10T13:19:14.141Z,18.70
2019-05-10T13:21:39.162Z,18.60
2019-05-10T13:24:07.795Z,18.40
2019-05-10T13:26:36.418Z,18.10
2019-05-10T13:29:08.251Z,17.80
2019-05-10T13:31:41.856Z,17.50
2019-05-10T13:34:05.635Z,17.10
2019-05-10T13:36:37.066Z,17.00
2019-05-10T13:39:05.549Z,17.00
2019-05-10T13:41:34.162Z,16.80
2019-05-10T13:44:04.967Z,16.50
2019-05-10T13:46:33.172Z,16.30
2019-05-10T13:49:01.832Z,16.20
2019-05-10T13:51:30.536Z,16.10
2019-05-10T13:54:00.874Z,15.90
2019-05-10T13:56:29.530Z,15.70
2019-05-10T13:58:58.225Z,15.60
2019-05-10T14:01:26.813Z,15.60
2019-05-10T14:04:01.083Z,15.60
2019-05-10T14:06:25.703Z,15.50
2019-05-10T14:08:54.346Z,15.40
2019-05-10T14:11:22.959Z,15.30
2019-05-10T14:13:51.758Z,15.20
2019-05-10T14:16:22.353Z,15.20
2019-05-10T14:18:50.706Z,15.10
2019-05-10T14:21:19.342Z,15.20
2019-05-10T14:23:49.022Z,15.10
2019-05-10T14:26:18.363Z,14.90
2019-05-10T14:28:52.553Z,14.70
2019-05-10T14:31:17.459Z,14.50
2019-05-10T14:33:49.543Z,14.10
2019-05-10T14:36:16.402Z,14.00
2019-05-10T14:38:47.423Z,13.80
2019-05-10T14:41:16.299Z,13.80
2019-05-10T14:43:44.973Z,13.60
2019-05-10T14:46:14.123Z,13.60
2019-05-10T14:48:42.834Z,13.50
2019-05-10T14:51:13.834Z,13.50
2019-05-10T14:53:41.750Z,13.40
2019-05-10T14:56:14.076Z,13.50
2019-05-10T14:58:40.711Z,13.50
2019-05-10T15:01:09.323Z,13.50
2019-05-10T15:03:45.315Z,13.50
2019-05-10T15:06:08.230Z,13.50
2019-05-10T15:08:36.864Z,13.40
2019-05-10T15:11:05.570Z,13.50
2019-05-10T15:13:43.360Z,13.50
2019-05-10T15:16:13.122Z,13.60
2019-05-10T15:18:42.371Z,13.50
2019-05-10T15:21:11.018Z,13.60
2019-05-10T15:23:39.670Z,13.60
2019-05-10T15:26:11.668Z,13.70
2019-05-10T15:28:40.184Z,13.70
2019-05-10T15:31:08.865Z,13.60
2019-05-10T15:33:37.462Z,13.60
2019-05-10T15:36:06.108Z,13.60
2019-05-10T15:38:40.491Z,13.50
2019-05-10T15:41:05.134Z,13.50
2019-05-10T15:43:33.825Z,13.50
2019-05-10T15:46:02.446Z,13.50
2019-05-10T15:48:36.519Z,13.50
2019-05-10T15:51:02.435Z,13.40
2019-05-10T15:53:31.100Z,13.40
2019-05-10T15:56:03.938Z,13.40
2019-05-10T15:58:36.140Z,13.40
2019-05-10T16:01:01.029Z,13.40
2019-05-10T16:03:29.629Z,13.40
2019-05-10T16:06:00.879Z,13.40
2019-05-10T16:08:30.420Z,13.40
2019-05-10T16:10:58.662Z,13.40
2019-05-10T16:13:27.308Z,13.40
2019-05-10T16:15:57.559Z,13.30
2019-05-10T16:18:26.124Z,13.30
2019-05-10T16:20:54.729Z,13.20
2019-05-10T16:23:23.313Z,13.20
2019-05-10T16:25:51.916Z,13.20
2019-05-10T16:28:22.959Z,13.20
2019-05-10T16:30:51.785Z,13.20
2019-05-10T16:33:20.368Z,13.20
2019-05-10T16:35:49.985Z,13.20
2019-05-10T16:38:18.765Z,13.10
2019-05-10T16:40:58.566Z,13.20
2019-05-10T16:43:24.491Z,13.20
2019-05-10T16:47:11.413Z,13.10
2019-05-10T16:49:40.856Z,13.30
2019-05-10T16:52:10.320Z,13.30
2019-05-10T16:54:39.770Z,13.30
2019-05-10T16:57:09.241Z,13.40
2019-05-10T16:59:38.685Z,13.40
2019-05-10T17:02:11.694Z,13.50
2019-05-10T17:04:39.770Z,13.50
2019-05-10T17:07:12.939Z,13.50
2019-05-10T17:09:39.577Z,13.40
2019-05-10T17:12:09.123Z,13.40
2019-05-10T17:14:38.569Z,13.30
2019-05-10T17:17:08.063Z,13.30
2019-05-10T17:19:37.512Z,13.30
2019-05-10T17:22:07.048Z,13.40
2019-05-10T17:24:36.497Z,13.40
2019-05-10T17:27:05.961Z,13.50
2019-05-10T17:29:35.417Z,13.50
2019-05-10T17:32:26.558Z,13.50
2019-05-10T17:34:59.320Z,13.50
2019-05-10T17:37:29.836Z,13.50
2019-05-10T17:39:59.429Z,13.50
2019-05-10T17:42:28.901Z,13.50
2019-05-10T17:45:02.025Z,13.40
2019-05-10T17:47:32.368Z,13.40
2019-05-10T17:50:00.585Z,13.30
2019-05-10T17:52:30.121Z,13.30
2019-05-10T17:54:59.602Z,13.30
2019-05-10T17:57:29.071Z,13.20
2019-05-10T17:59:58.512Z,13.20
2019-05-10T18:02:28.002Z,13.10
2019-05-10T18:04:59.785Z,13.00
2019-05-10T18:07:28.637Z,12.90
2019-05-10T18:09:58.077Z,12.80
2019-05-10T18:12:27.546Z,12.70
2019-05-10T18:14:57.681Z,12.60
2019-05-10T18:17:27.626Z,12.50
2019-05-10T18:20:02.399Z,12.40
2019-05-10T18:22:29.417Z,12.20
2019-05-10T18:24:58.861Z,12.10
2019-05-10T18:27:28.317Z,12.00
2019-05-10T18:29:57.795Z,12.00
2019-05-10T18:32:29.252Z,11.90
2019-05-10T18:34:58.326Z,11.80
2019-05-10T18:37:27.769Z,11.80
2019-05-10T18:39:57.245Z,11.70
2019-05-10T18:42:28.025Z,11.60
2019-05-10T18:44:57.657Z,11.50
2019-05-10T18:47:27.102Z,11.40
2019-05-10T18:49:56.574Z,11.40
2019-05-10T18:52:26.012Z,11.40
2019-05-10T18:54:55.496Z,11.40
2019-05-10T18:57:24.941Z,11.30
2019-05-10T19:00:00.216Z,11.30
2019-05-10T19:02:29.638Z,11.30
2019-05-10T19:04:59.127Z,11.30
2019-05-10T19:07:28.617Z,11.30
2019-05-10T19:09:58.173Z,11.20
2019-05-10T19:12:27.805Z,11.20
2019-05-10T19:15:02.431Z,11.20
2019-05-10T19:17:27.933Z,11.10
2019-05-10T19:19:57.405Z,11.00
2019-05-10T19:22:26.937Z,11.00
2019-05-10T19:24:57.172Z,10.90
2019-05-10T19:27:26.717Z,10.80
2019-05-10T19:29:56.303Z,10.80
2019-05-10T19:32:25.757Z,10.70
2019-05-10T19:34:57.908Z,10.70
2019-05-10T19:37:33.401Z,10.60
2019-05-10T19:40:05.377Z,10.60
2019-05-10T19:42:37.198Z,10.60
2019-05-10T19:45:07.541Z,10.50
2019-05-10T19:47:36.988Z,10.50
2019-05-10T19:50:07.288Z,10.50
2019-05-10T19:52:36.734Z,10.50
2019-05-10T19:55:06.556Z,10.40
2019-05-10T19:57:35.980Z,10.40
2019-05-10T20:00:08.710Z,10.40
2019-05-10T20:02:38.149Z,10.40
2019-05-10T20:05:07.862Z,10.40
2019-05-10T20:07:45.787Z,10.30
2019-05-10T20:10:08.541Z,10.30
2019-05-10T20:12:38.065Z,10.30
2019-05-10T20:15:07.870Z,10.40
2019-05-10T20:17:37.656Z,10.30
2019-05-10T20:20:06.780Z,10.30
2019-05-10T20:22:36.449Z,10.30
2019-05-10T20:25:07.450Z,10.40
2019-05-10T20:27:36.895Z,10.40
2019-05-10T20:30:08.008Z,10.40
2019-05-10T20:32:37.462Z,10.50
2019-05-10T20:35:07.958Z,10.50
2019-05-10T20:37:37.401Z,10.50
2019-05-10T20:40:08.449Z,10.50
2019-05-10T20:42:37.891Z,10.60
2019-05-10T20:45:08.686Z,10.60
2019-05-10T20:47:38.262Z,10.60
2019-05-10T20:50:08.366Z,10.60
2019-05-10T20:52:37.813Z,10.60
2019-05-10T20:55:07.622Z,10.60
2019-05-10T20:57:37.080Z,10.60
2019-05-10T21:00:07.050Z,10.60
2019-05-10T21:02:38.105Z,10.60
2019-05-10T21:05:08.118Z,10.60
2019-05-10T21:07:36.788Z,10.70
2019-05-10T21:10:07.689Z,10.70
2019-05-10T21:12:37.136Z,10.60
2019-05-10T21:15:07.948Z,10.60
2019-05-10T21:17:37.407Z,10.60
2019-05-10T21:20:07.899Z,10.60
2019-05-10T21:22:37.405Z,10.60
2019-05-10T21:25:07.816Z,10.60
2019-05-10T21:27:37.259Z,10.50
2019-05-10T21:30:08.575Z,10.50
2019-05-10T21:32:38.023Z,10.50
2019-05-10T21:35:07.563Z,10.50
2019-05-10T21:37:37.132Z,10.40
2019-05-10T21:40:09.794Z,10.40
2019-05-10T21:42:39.246Z,10.40
2019-05-10T21:45:09.206Z,10.40
2019-05-10T21:47:50.657Z,10.30
2019-05-10T21:50:09.366Z,10.30
2019-05-10T21:52:38.818Z,10.30
2019-05-10T21:55:08.414Z,10.30
2019-05-10T21:57:38.050Z,10.30
2019-05-10T22:00:08.350Z,10.30
2019-05-10T22:02:39.678Z,10.20
2019-05-10T22:05:09.418Z,10.20
2019-05-10T22:07:38.994Z,10.20
2019-05-10T22:10:08.820Z,10.20
2019-05-10T22:12:38.392Z,10.20
2019-05-10T22:15:08.317Z,10.20
2019-05-10T22:17:37.045Z,10.30
2019-05-10T22:20:08.103Z,10.30
2019-05-10T22:22:37.662Z,10.30
2019-05-10T22:25:07.237Z,10.30
2019-05-10T22:27:36.746Z,10.20
2019-05-10T22:30:11.984Z,10.20
2019-05-10T22:32:39.397Z,10.10
2019-05-10T22:35:09.249Z,10.10
2019-05-10T22:37:38.757Z,10.10
2019-05-10T22:40:08.404Z,10.10
2019-05-10T22:42:37.981Z,10.10
2019-05-10T22:45:07.701Z,10.10
2019-05-10T22:47:37.210Z,10.00
2019-05-10T22:50:08.497Z,10.00
2019-05-10T22:52:38.006Z,10.00
2019-05-10T22:55:09.040Z,9.90
2019-05-10T22:57:37.804Z,9.90
2019-05-10T23:00:09.394Z,9.80
2019-05-10T23:02:40.508Z,9.80
2019-05-10T23:05:11.116Z,9.80
2019-05-10T23:07:40.625Z,9.80
2019-05-10T23:10:16.972Z,9.80
2019-05-10T23:12:46.480Z,9.70
2019-05-10T23:15:16.194Z,9.70
2019-05-10T23:17:45.696Z,9.70
2019-05-10T23:20:15.328Z,9.70
2019-05-10T23:22:44.817Z,9.60
2019-05-10T23:25:14.305Z,9.70
2019-05-10T23:27:44.023Z,9.60
2019-05-10T23:30:13.568Z,9.60
2019-05-10T23:32:43.069Z,9.50
2019-05-10T23:35:12.614Z,9.50
2019-05-10T23:37:42.116Z,9.40
2019-05-10T23:40:11.949Z,9.40
2019-05-10T23:42:41.458Z,9.40
2019-05-10T23:45:11.012Z,9.40
2019-05-10T23:47:40.511Z,9.40
2019-05-10T23:50:10.424Z,9.40
2019-05-10T23:52:39.148Z,9.40
2019-05-10T23:55:11.769Z,9.40
2019-05-10T23:57:41.277Z,9.30
